createdAt,value
2019-02-14T08:20:24.738Z,22.43
2019-02-14T08:23:47.566Z,21.67
2019-02-14T08:27:09.920Z,21.33
2019-02-14T08:30:32.626Z,21.77
2019-02-14T08:33:55.282Z,21.37
2019-02-14T08:37:21.008Z,21.87
2019-02-14T08:40:43.642Z,21.90
2019-02-14T08:44:06.554Z,22.23
2019-02-14T08:47:29.467Z,21.50
2019-02-14T08:50:52.131Z,22.10
2019-02-14T08:54:14.923Z,21.00
2019-02-14T08:57:37.224Z,21.30
2019-02-14T09:00:59.583Z,20.03
2019-02-14T09:04:22.024Z,20.70
2019-02-14T09:07:44.496Z,20.13
2019-02-14T09:11:07.224Z,21.80
2019-02-14T09:14:29.698Z,20.40
2019-02-14T09:17:52.136Z,22.23
2019-02-14T09:21:14.627Z,21.50
2019-02-14T09:24:36.763Z,20.83
2019-02-14T09:27:59.228Z,19.57
2019-02-14T09:31:21.626Z,19.87
2019-02-14T09:34:44.138Z,19.37
2019-02-14T09:38:06.625Z,19.30
2019-02-14T09:41:29.118Z,20.20
2019-02-14T09:44:51.827Z,19.60
2019-02-14T09:48:14.419Z,19.60
2019-02-14T09:51:36.744Z,20.23
2019-02-14T09:54:59.130Z,18.97
2019-02-14T09:58:22.680Z,18.13
2019-02-14T10:01:45.355Z,19.77
2019-02-14T10:05:08.408Z,17.00
2019-02-14T10:08:30.828Z,17.63
2019-02-14T10:11:53.289Z,17.13
2019-02-14T10:15:16.148Z,18.07
2019-02-14T10:18:39.018Z,17.97
2019-02-14T10:22:01.314Z,21.13
2019-02-14T10:25:23.681Z,17.83
2019-02-14T10:28:46.018Z,18.40
2019-02-14T10:32:08.590Z,18.37
2019-02-14T10:35:31.142Z,17.10
2019-02-14T10:38:53.267Z,17.07
2019-02-14T10:42:16.027Z,16.80
2019-02-14T10:45:38.380Z,17.63
2019-02-14T10:49:00.898Z,19.63
2019-02-14T10:52:23.349Z,18.63
2019-02-14T10:55:45.816Z,17.73
2019-02-14T10:59:08.431Z,16.53
2019-02-14T11:02:30.976Z,17.70
2019-02-14T11:05:53.640Z,20.37
2019-02-14T11:09:15.852Z,19.33
2019-02-14T11:12:38.724Z,17.53
2019-02-14T11:16:01.126Z,16.57
2019-02-14T11:19:23.606Z,16.47
2019-02-14T11:22:46.064Z,16.80
2019-02-14T11:26:08.776Z,15.30
2019-02-14T11:29:31.379Z,19.77
2019-02-14T11:32:54.009Z,15.17
2019-02-14T11:36:16.609Z,16.17
2019-02-14T11:39:39.030Z,15.67
2019-02-14T11:43:01.547Z,16.73
2019-02-14T11:46:24.236Z,17.13
2019-02-14T11:49:47.173Z,16.37
2019-02-14T11:53:14.084Z,18.20
2019-02-14T11:56:34.344Z,19.00
2019-02-14T11:59:56.807Z,18.57
2019-02-14T12:03:19.078Z,19.37
2019-02-14T12:06:41.755Z,19.37
2019-02-14T12:10:13.270Z,21.40
2019-02-14T12:13:29.432Z,18.73
2019-02-14T12:16:52.292Z,20.73
2019-02-14T12:20:15.213Z,19.10
2019-02-14T12:23:38.160Z,19.73
2019-02-14T12:27:01.143Z,19.57
2019-02-14T12:30:23.893Z,21.37
2019-02-14T12:33:46.242Z,19.43
2019-02-14T12:37:08.576Z,19.90
2019-02-14T12:40:31.462Z,19.93
2019-02-14T12:43:54.194Z,20.13
2019-02-14T12:47:17.014Z,19.03
2019-02-14T12:50:39.626Z,18.73
2019-02-14T12:54:02.022Z,19.60
2019-02-14T12:57:24.436Z,19.47
2019-02-14T13:00:47.178Z,20.20
2019-02-14T13:04:09.313Z,19.70
2019-02-14T13:07:31.449Z,20.67
2019-02-14T13:10:53.947Z,20.10
2019-02-14T13:14:16.429Z,20.83
2019-02-14T13:17:39.090Z,16.57
2019-02-14T13:21:01.820Z,17.53
2019-02-14T13:24:24.259Z,16.97
2019-02-14T13:27:46.791Z,16.50
2019-02-14T13:31:09.349Z,17.27
2019-02-14T13:34:31.901Z,16.17
2019-02-14T13:37:54.513Z,17.13
2019-02-14T13:41:16.921Z,17.47
2019-02-14T13:44:39.559Z,19.33
2019-02-14T13:48:02.226Z,18.17
2019-02-14T13:51:24.998Z,18.00
2019-02-14T13:54:47.738Z,18.13
2019-02-14T13:58:10.294Z,18.87
2019-02-14T14:01:32.955Z,17.90
2019-02-14T14:04:55.641Z,16.70
2019-02-14T14:08:18.307Z,18.87
2019-02-14T14:11:41.116Z,16.67
2019-02-14T14:15:04.220Z,18.57
2019-02-14T14:18:26.986Z,19.13
2019-02-14T14:21:49.819Z,17.50
2019-02-14T14:25:12.733Z,16.93
2019-02-14T14:28:35.269Z,16.87
2019-02-14T14:31:57.772Z,16.50
2019-02-14T14:35:20.435Z,16.57
2019-02-14T14:38:42.818Z,15.37
2019-02-14T14:42:06.573Z,16.93
2019-02-14T14:45:43.181Z,15.13
2019-02-14T14:49:05.535Z,16.73
2019-02-14T14:52:27.617Z,16.93
2019-02-14T14:55:50.201Z,18.27
2019-02-14T14:59:12.365Z,15.93
2019-02-14T15:02:34.842Z,15.97
2019-02-14T15:05:57.921Z,20.00
2019-02-14T15:09:20.775Z,16.20
2019-02-14T15:12:43.473Z,16.00
2019-02-14T15:16:05.898Z,16.40
2019-02-14T15:19:28.561Z,16.57
2019-02-14T15:22:51.095Z,16.10
2019-02-14T15:26:13.909Z,15.90
2019-02-14T15:29:36.491Z,16.83
2019-02-14T15:32:59.196Z,17.87
2019-02-14T15:36:22.129Z,17.33
2019-02-14T15:39:45.945Z,16.80
2019-02-14T15:43:08.430Z,17.13
2019-02-14T15:46:31.021Z,17.97
2019-02-14T15:49:53.503Z,16.40
2019-02-14T15:53:17.443Z,15.50
2019-02-14T15:56:39.996Z,16.70
2019-02-14T16:00:04.646Z,16.43
2019-02-14T16:03:26.856Z,16.43
2019-02-14T16:06:50.562Z,16.40
2019-02-14T16:10:18.522Z,16.60
2019-02-14T16:13:38.026Z,17.73
2019-02-14T16:17:00.471Z,15.60
2019-02-14T16:20:23.088Z,15.70
2019-02-14T16:23:45.469Z,16.00
2019-02-14T16:27:07.638Z,15.83
2019-02-14T16:30:31.102Z,19.57
2019-02-14T16:33:54.156Z,18.23
2019-02-14T16:37:16.725Z,18.23
2019-02-14T16:40:39.442Z,16.70
2019-02-14T16:44:01.818Z,17.17
2019-02-14T16:47:24.423Z,15.77
2019-02-14T16:50:47.288Z,15.83
2019-02-14T16:54:09.880Z,17.43
2019-02-14T16:57:32.479Z,17.97
2019-02-14T17:00:54.657Z,19.23
2019-02-14T17:04:18.617Z,17.10
2019-02-14T17:07:41.081Z,16.77
2019-02-14T17:11:03.783Z,17.10
2019-02-14T17:14:26.452Z,16.93
2019-02-14T17:17:48.911Z,17.20
2019-02-14T17:21:11.493Z,18.10
2019-02-14T17:24:33.963Z,16.67
2019-02-14T17:27:56.095Z,16.00
2019-02-14T17:31:18.574Z,15.97
2019-02-14T17:34:41.206Z,17.17
2019-02-14T17:38:03.627Z,16.93
2019-02-14T17:41:26.330Z,17.70
2019-02-14T17:44:49.056Z,17.10
2019-02-14T17:48:11.420Z,16.87
2019-02-14T17:51:34.216Z,17.23
2019-02-14T17:54:56.297Z,16.70
2019-02-14T17:58:18.965Z,17.60
2019-02-14T18:01:41.461Z,18.70
2019-02-14T18:05:04.054Z,16.43
2019-02-14T18:08:26.547Z,16.17
2019-02-14T18:11:49.028Z,15.97
2019-02-14T18:15:12.066Z,16.90
2019-02-14T18:18:34.550Z,17.27
2019-02-14T18:21:58.161Z,17.33
2019-02-14T18:25:21.007Z,17.70
2019-02-14T18:28:43.580Z,16.13
2019-02-14T18:32:06.366Z,17.70
2019-02-14T18:35:29.106Z,17.97
2019-02-14T18:38:51.994Z,17.53
2019-02-14T18:42:14.655Z,19.63
2019-02-14T18:45:37.598Z,17.43
2019-02-14T18:49:00.433Z,19.03
2019-02-14T18:52:23.214Z,18.63
2019-02-14T18:55:45.781Z,19.87
2019-02-14T18:59:07.940Z,18.63
2019-02-14T19:02:30.537Z,19.47
2019-02-14T19:05:53.132Z,19.67
2019-02-14T19:09:15.586Z,17.93
2019-02-14T19:12:37.948Z,17.80
2019-02-14T19:16:00.499Z,16.60
2019-02-14T19:19:23.218Z,17.47
2019-02-14T19:22:45.305Z,17.93
2019-02-14T19:26:08.041Z,17.83
2019-02-14T19:29:30.515Z,17.57
2019-02-14T19:32:53.188Z,17.10
2019-02-14T19:36:15.832Z,17.27
2019-02-14T19:39:38.286Z,16.50
2019-02-14T19:43:00.872Z,15.83
2019-02-14T19:46:23.681Z,17.00
2019-02-14T19:49:46.167Z,16.10
2019-02-14T19:53:08.676Z,16.03
2019-02-14T19:56:31.129Z,16.60
2019-02-14T19:59:53.856Z,16.63
2019-02-14T20:03:16.521Z,17.10
2019-02-14T20:06:38.968Z,17.37
2019-02-14T20:10:01.571Z,17.30
2019-02-14T20:13:24.178Z,16.27
2019-02-14T20:16:46.837Z,17.17
2019-02-14T20:20:09.885Z,17.07
2019-02-14T20:23:32.193Z,15.20
2019-02-14T20:26:54.842Z,15.60
2019-02-14T20:30:17.381Z,17.63
2019-02-14T20:33:39.783Z,16.87
2019-02-14T20:37:02.118Z,17.67
2019-02-14T20:40:24.563Z,17.93
2019-02-14T20:43:46.969Z,17.50
2019-02-14T20:47:09.314Z,17.17
2019-02-14T20:50:32.014Z,15.30
2019-02-14T20:53:54.854Z,15.23
2019-02-14T20:57:17.244Z,17.03
2019-02-14T21:00:39.918Z,17.90
2019-02-14T21:04:02.356Z,18.00
2019-02-14T21:07:24.919Z,16.17
2019-02-14T21:10:47.411Z,16.07
2019-02-14T21:14:09.991Z,14.97
2019-02-14T21:17:32.700Z,14.00
2019-02-14T21:20:54.875Z,14.90
2019-02-14T21:24:17.357Z,13.93
2019-02-14T21:27:40.176Z,12.97
2019-02-14T21:31:02.706Z,14.67
2019-02-14T21:34:25.558Z,13.23
2019-02-14T21:37:48.272Z,11.40
2019-02-14T21:41:10.774Z,12.03
2019-02-14T21:44:33.609Z,11.77
2019-02-14T21:47:55.881Z,11.33
2019-02-14T21:51:18.246Z,11.50
2019-02-14T21:54:40.873Z,11.23
2019-02-14T21:58:05.035Z,11.43
2019-02-14T22:01:27.685Z,11.23
2019-02-14T22:04:50.225Z,10.07
2019-02-14T22:08:13.054Z,10.83
2019-02-14T22:11:35.452Z,10.97
2019-02-14T22:14:58.125Z,11.47
2019-02-14T22:18:20.683Z,10.87
2019-02-14T22:21:42.889Z,11.93
2019-02-14T22:25:06.110Z,11.33
2019-02-14T22:28:28.517Z,11.70
2019-02-14T22:31:50.734Z,12.30
2019-02-14T22:35:13.496Z,11.50
2019-02-14T22:38:36.163Z,11.33
2019-02-14T22:41:58.673Z,11.53
2019-02-14T22:45:21.832Z,11.57
2019-02-14T22:48:44.307Z,11.33
2019-02-14T22:52:07.055Z,11.30
2019-02-14T22:55:29.101Z,11.33
2019-02-14T22:58:51.772Z,11.63
2019-02-14T23:02:14.280Z,11.10
2019-02-14T23:05:37.235Z,11.73
2019-02-14T23:08:59.378Z,14.93
2019-02-14T23:12:21.762Z,17.73
2019-02-14T23:15:44.343Z,20.97
2019-02-14T23:19:06.863Z,15.40
2019-02-14T23:22:29.334Z,13.93
2019-02-14T23:25:52.152Z,12.47
2019-02-14T23:29:15.007Z,13.30
2019-02-14T23:32:37.656Z,12.23
2019-02-14T23:36:00.305Z,11.10
2019-02-14T23:39:23.157Z,11.70
2019-02-14T23:42:45.968Z,14.63
2019-02-14T23:46:08.488Z,14.83
2019-02-14T23:49:31.043Z,15.30
2019-02-14T23:52:53.790Z,16.33
2019-02-14T23:56:21.615Z,15.87
2019-02-14T23:59:43.981Z,13.37
